createdAt,value
2023-04-12T00:00:12.002Z,8.95
2023-04-12T00:01:43.816Z,8.93
2023-04-12T00:03:21.387Z,8.89
2023-04-12T00:04:55.791Z,8.82
2023-04-12T00:06:32.523Z,8.73
2023-04-12T00:08:05.337Z,8.61
2023-04-12T00:09:38.221Z,8.55
2023-04-12T00:11:10.020Z,8.49
2023-04-12T00:12:41.777Z,8.44
2023-04-12T00:14:13.362Z,8.42
2023-04-12T00:15:45.519Z,8.42
2023-04-12T00:17:17.182Z,8.38
2023-04-12T00:18:49.002Z,8.33
2023-04-12T00:20:20.649Z,8.32
2023-04-12T00:21:52.423Z,8.29
2023-04-12T00:23:24.170Z,8.29
2023-04-12T00:24:56.007Z,8.25
2023-04-12T00:26:28.023Z,8.21
2023-04-12T00:27:59.865Z,8.17
2023-04-12T00:29:32.172Z,8.16
2023-04-12T00:31:03.902Z,8.14
2023-04-12T00:32:36.679Z,8.13
2023-04-12T00:34:08.244Z,8.14
2023-04-12T00:35:40.100Z,8.19
2023-04-12T00:37:12.174Z,8.22
2023-04-12T00:38:46.062Z,8.25
2023-04-12T00:40:17.814Z,8.29
2023-04-12T00:41:49.587Z,8.30
2023-04-12T00:43:21.407Z,8.29
2023-04-12T00:44:55.606Z,8.29
2023-04-12T00:46:29.623Z,8.29
2023-04-12T00:48:01.715Z,8.31
2023-04-12T00:49:34.822Z,8.30
2023-04-12T00:51:07.140Z,8.31
2023-04-12T00:52:40.515Z,8.32
2023-04-12T00:54:13.055Z,8.32
2023-04-12T00:55:45.232Z,8.31
2023-04-12T00:57:17.105Z,8.27
2023-04-12T00:58:48.993Z,8.27
2023-04-12T01:00:21.221Z,8.23
2023-04-12T01:01:53.215Z,8.21
2023-04-12T01:03:25.142Z,8.18
2023-04-12T01:04:58.863Z,8.19
2023-04-12T01:06:39.261Z,8.19
2023-04-12T01:08:23.309Z,8.21
2023-04-12T01:10:12.715Z,8.24
2023-04-12T01:12:07.325Z,8.23
2023-04-12T01:13:58.118Z,8.25
2023-04-12T01:15:31.924Z,8.26
2023-04-12T01:17:05.539Z,8.27
2023-04-12T01:18:40.969Z,8.29
2023-04-12T01:20:16.332Z,8.29
2023-04-12T01:21:50.778Z,8.30
2023-04-12T01:23:43.087Z,8.30
2023-04-12T01:25:30.194Z,8.30
2023-04-12T01:27:03.538Z,8.28
2023-04-12T01:28:35.795Z,8.30
2023-04-12T01:30:08.689Z,8.27
2023-04-12T01:31:41.221Z,8.26
2023-04-12T01:33:15.495Z,8.24
2023-04-12T01:35:04.748Z,8.28
2023-04-12T01:36:36.402Z,8.30
2023-04-12T01:38:11.434Z,8.30
2023-04-12T01:39:43.269Z,8.33
2023-04-12T01:41:22.143Z,8.32
2023-04-12T01:43:08.956Z,8.32
2023-04-12T01:44:40.872Z,8.30
2023-04-12T01:46:13.215Z,8.28
2023-04-12T01:47:45.215Z,8.29
2023-04-12T01:49:17.118Z,8.26
2023-04-12T01:50:52.180Z,8.27
2023-04-12T01:52:23.689Z,8.29
2023-04-12T01:53:57.990Z,8.30
2023-04-12T01:55:30.395Z,8.26
2023-04-12T01:57:02.628Z,8.24
2023-04-12T01:58:34.709Z,8.23
2023-04-12T02:00:07.973Z,8.22
2023-04-12T02:01:39.542Z,8.21
2023-04-12T02:03:12.557Z,8.20
2023-04-12T02:04:44.686Z,8.20
2023-04-12T02:06:16.559Z,8.20
2023-04-12T02:07:48.239Z,8.20
2023-04-12T02:09:20.137Z,8.21
2023-04-12T02:10:51.987Z,8.17
2023-04-12T02:12:23.858Z,8.19
2023-04-12T02:13:55.760Z,8.19
2023-04-12T02:15:28.596Z,8.18
2023-04-12T02:17:02.609Z,8.18
2023-04-12T02:18:37.450Z,8.15
2023-04-12T02:20:12.459Z,8.12
2023-04-12T02:21:44.572Z,8.06
2023-04-12T02:23:16.403Z,8.03
2023-04-12T02:24:48.385Z,8.04
2023-04-12T02:26:20.430Z,8.04
2023-04-12T02:27:52.479Z,8.01
2023-04-12T02:29:24.400Z,7.97
2023-04-12T02:30:56.004Z,7.98
2023-04-12T02:32:27.695Z,7.99
2023-04-12T02:33:59.459Z,8.02
2023-04-12T02:35:32.102Z,8.07
2023-04-12T02:37:04.846Z,8.10
2023-04-12T02:38:36.728Z,8.15
2023-04-12T02:40:12.860Z,8.18
2023-04-12T02:41:44.959Z,8.25
2023-04-12T02:43:16.731Z,8.30
2023-04-12T02:44:48.896Z,8.32
2023-04-12T02:46:22.245Z,8.35
2023-04-12T02:47:54.364Z,8.40
2023-04-12T02:49:26.865Z,8.45
2023-04-12T02:50:59.015Z,8.51
2023-04-12T02:52:30.715Z,8.57
2023-04-12T02:54:04.478Z,8.62
2023-04-12T02:55:36.938Z,8.69
2023-04-12T02:57:18.752Z,8.72
2023-04-12T02:59:00.008Z,8.77
2023-04-12T03:00:34.842Z,8.80
2023-04-12T03:02:06.589Z,8.82
2023-04-12T03:03:39.471Z,8.84
2023-04-12T03:05:12.365Z,8.86
2023-04-12T03:06:52.612Z,8.88
2023-04-12T03:08:24.545Z,8.90
2023-04-12T03:10:02.386Z,8.90
2023-04-12T03:11:44.508Z,8.90
2023-04-12T03:13:16.412Z,8.88
2023-04-12T03:15:01.083Z,8.87
2023-04-12T03:16:32.833Z,8.87
2023-04-12T03:18:06.215Z,8.86
2023-04-12T03:19:40.501Z,8.85
2023-04-12T03:21:14.612Z,8.88
2023-04-12T03:22:48.993Z,8.87
2023-04-12T03:24:20.831Z,8.89
2023-04-12T03:25:52.371Z,8.92
2023-04-12T03:27:26.938Z,8.93
2023-04-12T03:29:02.111Z,8.95
2023-04-12T03:30:36.716Z,8.98
2023-04-12T03:32:20.110Z,8.97
2023-04-12T03:33:51.947Z,8.98
2023-04-12T03:35:23.791Z,9.00
2023-04-12T03:36:55.943Z,9.00
2023-04-12T03:38:27.753Z,9.02
2023-04-12T03:39:59.573Z,9.07
2023-04-12T03:41:31.264Z,9.07
2023-04-12T03:43:05.702Z,9.08
2023-04-12T03:44:37.708Z,9.05
2023-04-12T03:46:12.185Z,9.04
2023-04-12T03:47:44.074Z,9.08
2023-04-12T03:49:16.788Z,9.12
2023-04-12T03:50:48.593Z,9.18
2023-04-12T03:52:20.259Z,9.21
2023-04-12T03:53:52.110Z,9.21
2023-04-12T03:55:24.283Z,9.20
2023-04-12T03:56:56.834Z,9.16
2023-04-12T03:58:28.591Z,9.12
2023-04-12T04:00:00.316Z,9.12
2023-04-12T04:01:32.137Z,9.14
2023-04-12T04:03:04.318Z,9.16
2023-04-12T04:04:37.928Z,9.14
2023-04-12T04:06:09.929Z,9.13
2023-04-12T04:07:41.598Z,9.12
2023-04-12T04:09:13.297Z,9.10
2023-04-12T04:10:44.947Z,9.11
2023-04-12T04:12:16.846Z,9.14
2023-04-12T04:13:48.794Z,9.20
2023-04-12T04:15:20.526Z,9.25
2023-04-12T04:16:52.204Z,9.29
2023-04-12T04:18:23.816Z,9.28
2023-04-12T04:19:55.457Z,9.29
2023-04-12T04:21:27.123Z,9.30
2023-04-12T04:22:58.740Z,9.31
2023-04-12T04:24:30.564Z,9.33
2023-04-12T04:26:05.266Z,9.35
2023-04-12T04:27:38.643Z,9.38
2023-04-12T04:29:10.290Z,9.38
2023-04-12T04:30:42.190Z,9.38
2023-04-12T04:32:13.939Z,9.40
2023-04-12T04:33:45.678Z,9.39
2023-04-12T04:35:17.590Z,9.45
2023-04-12T04:36:49.367Z,9.48
2023-04-12T04:38:25.828Z,9.48
2023-04-12T04:39:57.574Z,9.49
2023-04-12T04:41:30.198Z,9.52
2023-04-12T04:43:01.943Z,9.54
2023-04-12T04:44:36.392Z,9.58
2023-04-12T04:46:08.116Z,9.62
2023-04-12T04:47:40.184Z,9.65
2023-04-12T04:49:12.287Z,9.69
2023-04-12T04:50:44.355Z,9.74
2023-04-12T04:52:16.089Z,9.81
2023-04-12T04:53:47.795Z,9.87
2023-04-12T04:55:21.113Z,9.91
2023-04-12T04:56:52.891Z,9.98
2023-04-12T04:58:24.525Z,10.06
2023-04-12T04:59:56.330Z,10.07
2023-04-12T05:01:28.792Z,10.07
2023-04-12T05:03:00.969Z,10.05
2023-04-12T05:04:33.078Z,10.06
2023-04-12T05:06:04.971Z,10.11
2023-04-12T05:07:39.206Z,10.09
2023-04-12T05:09:11.179Z,10.07
2023-04-12T05:10:44.090Z,10.10
2023-04-12T05:12:15.772Z,10.15
2023-04-12T05:13:47.487Z,10.13
2023-04-12T05:15:22.535Z,10.15
2023-04-12T05:16:54.487Z,10.18
2023-04-12T05:18:26.499Z,10.19
2023-04-12T05:19:58.204Z,10.16
2023-04-12T05:21:30.286Z,10.14
2023-04-12T05:23:01.841Z,10.15
2023-04-12T05:24:35.953Z,10.14
2023-04-12T05:26:07.615Z,10.14
2023-04-12T05:27:39.387Z,10.14
2023-04-12T05:29:11.248Z,10.14
2023-04-12T05:30:43.192Z,10.17
2023-04-12T05:32:15.158Z,10.22
2023-04-12T05:33:46.851Z,10.26
2023-04-12T05:35:19.475Z,10.32
2023-04-12T05:36:51.433Z,10.35
2023-04-12T05:38:24.299Z,10.37
2023-04-12T05:40:10.708Z,10.41
2023-04-12T05:41:42.459Z,10.40
2023-04-12T05:43:24.666Z,10.39
2023-04-12T05:44:56.636Z,10.43
2023-04-12T05:46:28.674Z,10.47
2023-04-12T05:48:01.528Z,10.53
2023-04-12T05:49:35.568Z,10.58
2023-04-12T05:51:10.306Z,10.62
2023-04-12T05:52:42.502Z,10.73
2023-04-12T05:54:14.371Z,10.82
2023-04-12T05:55:46.208Z,10.90
2023-04-12T05:57:24.992Z,10.96
2023-04-12T05:58:57.970Z,11.08
2023-04-12T06:00:30.473Z,11.25
2023-04-12T06:02:02.536Z,11.41
2023-04-12T06:03:34.873Z,11.50
2023-04-12T06:05:10.947Z,11.58
2023-04-12T06:06:43.682Z,11.60
2023-04-12T06:08:17.659Z,11.60
2023-04-12T06:09:52.903Z,11.64
2023-04-12T06:11:34.106Z,11.63
2023-04-12T06:13:09.011Z,11.64
2023-04-12T06:14:40.734Z,11.67
2023-04-12T06:16:13.816Z,11.71
2023-04-12T06:17:45.960Z,11.76
2023-04-12T06:19:26.764Z,11.81
2023-04-12T06:20:58.429Z,11.71
2023-04-12T06:22:30.065Z,11.56
2023-04-12T06:24:01.736Z,11.44
2023-04-12T06:25:33.797Z,11.34
2023-04-12T06:27:05.811Z,11.28
2023-04-12T06:28:37.736Z,11.20
2023-04-12T06:30:09.659Z,11.13
2023-04-12T06:31:41.591Z,11.04
2023-04-12T06:33:13.619Z,10.98
2023-04-12T06:34:45.580Z,10.93
2023-04-12T06:36:17.413Z,10.87
2023-04-12T06:37:49.554Z,10.89
2023-04-12T06:39:21.301Z,10.91
2023-04-12T06:40:53.045Z,10.87
2023-04-12T06:42:24.735Z,10.87
2023-04-12T06:43:56.310Z,10.90
2023-04-12T06:45:28.414Z,10.96
2023-04-12T06:47:00.503Z,10.98
2023-04-12T06:48:32.087Z,10.95
2023-04-12T06:50:03.933Z,10.86
2023-04-12T06:51:35.826Z,10.82
2023-04-12T06:53:07.592Z,10.75
2023-04-12T06:54:39.807Z,10.73
2023-04-12T06:56:11.327Z,10.71
2023-04-12T06:57:43.431Z,10.63
2023-04-12T06:59:15.432Z,10.62
2023-04-12T07:00:47.157Z,10.62
2023-04-12T07:02:18.990Z,10.62
2023-04-12T07:03:50.957Z,10.63
2023-04-12T07:05:22.803Z,10.62
2023-04-12T07:06:54.674Z,10.61
2023-04-12T07:08:27.464Z,10.59
2023-04-12T07:10:00.711Z,10.62
2023-04-12T07:11:32.274Z,10.61
2023-04-12T07:13:07.306Z,10.64
2023-04-12T07:14:38.961Z,10.63
2023-04-12T07:16:10.904Z,10.59
2023-04-12T07:17:42.962Z,10.55
2023-04-12T07:19:14.637Z,10.52
2023-04-12T07:20:50.728Z,10.49
2023-04-12T07:22:22.843Z,10.47
2023-04-12T07:23:55.096Z,10.46
2023-04-12T07:25:26.873Z,10.47
2023-04-12T07:26:58.929Z,10.52
2023-04-12T07:28:30.600Z,10.60
2023-04-12T07:30:02.431Z,10.67
2023-04-12T07:31:33.965Z,10.71
2023-04-12T07:33:18.626Z,10.81
2023-04-12T07:34:52.366Z,10.89
2023-04-12T07:36:23.951Z,10.94
2023-04-12T07:37:56.054Z,10.99
2023-04-12T07:39:30.068Z,11.08
2023-04-12T07:41:01.977Z,11.18
2023-04-12T07:42:33.670Z,11.27
2023-04-12T07:44:05.477Z,11.39
2023-04-12T07:45:40.633Z,11.47
2023-04-12T07:47:12.499Z,11.47
2023-04-12T07:48:44.362Z,11.44
2023-04-12T07:50:16.045Z,11.39
2023-04-12T07:51:47.805Z,11.39
2023-04-12T07:53:24.780Z,11.42
2023-04-12T07:55:50.876Z,11.42
2023-04-12T07:57:03.642Z,11.47
2023-04-12T07:58:35.450Z,11.52
2023-04-12T08:00:07.816Z,11.56
2023-04-12T08:01:39.523Z,11.55
2023-04-12T08:03:14.990Z,11.43
2023-04-12T08:04:47.044Z,11.26
2023-04-12T08:06:18.882Z,11.11
2023-04-12T08:07:50.496Z,11.07
2023-04-12T08:09:22.123Z,11.03
2023-04-12T08:10:53.802Z,11.04
2023-04-12T08:12:25.539Z,11.05
2023-04-12T08:13:57.379Z,11.03
2023-04-12T08:15:29.721Z,10.97
2023-04-12T08:17:01.599Z,10.94
2023-04-12T08:18:33.317Z,10.95
2023-04-12T08:20:05.360Z,10.98
2023-04-12T08:21:36.865Z,10.97
2023-04-12T08:23:08.662Z,11.01
2023-04-12T08:24:40.254Z,11.07
2023-04-12T08:26:11.963Z,11.17
2023-04-12T08:27:43.695Z,11.25
2023-04-12T08:29:15.717Z,11.36
2023-04-12T08:30:47.339Z,11.42
2023-04-12T08:32:21.920Z,11.50
2023-04-12T08:33:54.012Z,11.58
2023-04-12T08:35:25.659Z,11.61
2023-04-12T08:37:00.419Z,11.65
2023-04-12T08:40:09.547Z,11.63
2023-04-12T08:41:41.765Z,11.53
2023-04-12T08:43:14.590Z,11.48
2023-04-12T08:44:46.445Z,11.43
2023-04-12T08:46:18.368Z,11.46
2023-04-12T08:47:50.073Z,11.59
2023-04-12T08:49:25.314Z,11.78
2023-04-12T08:50:57.727Z,12.02
2023-04-12T08:52:29.891Z,12.28
2023-04-12T08:54:01.926Z,12.55
2023-04-12T08:55:33.768Z,12.76
2023-04-12T08:57:06.666Z,12.95
2023-04-12T08:58:39.601Z,13.10
2023-04-12T09:00:13.128Z,13.16
2023-04-12T09:01:44.940Z,13.24
2023-04-12T09:03:17.092Z,13.30
2023-04-12T09:04:53.619Z,13.37
2023-04-12T09:06:25.893Z,13.53
2023-04-12T09:07:58.112Z,13.72
2023-04-12T09:09:45.554Z,13.92
2023-04-12T09:11:24.492Z,14.04
2023-04-12T09:12:56.487Z,14.12
2023-04-12T09:14:28.297Z,14.07
2023-04-12T09:15:59.990Z,14.03
2023-04-12T09:17:34.102Z,13.91
2023-04-12T09:19:06.039Z,13.77
2023-04-12T09:20:37.900Z,13.67
2023-04-12T09:22:09.865Z,13.54
2023-04-12T09:23:41.614Z,13.30
2023-04-12T09:25:13.530Z,13.14
2023-04-12T09:26:45.406Z,13.06
2023-04-12T09:28:23.078Z,13.08
2023-04-12T09:30:08.082Z,13.08
2023-04-12T09:31:40.207Z,12.98
2023-04-12T09:33:13.152Z,12.89
2023-04-12T09:34:54.831Z,12.86
2023-04-12T09:36:28.352Z,12.87
2023-04-12T09:38:00.018Z,13.00
2023-04-12T09:39:34.870Z,12.99
2023-04-12T09:41:22.252Z,12.92
2023-04-12T09:42:56.770Z,12.87
2023-04-12T09:44:29.778Z,12.80
2023-04-12T09:46:13.888Z,12.73
2023-04-12T09:47:45.859Z,12.68
2023-04-12T09:49:17.881Z,12.67
2023-04-12T09:50:49.584Z,12.75
2023-04-12T09:52:21.499Z,12.89
2023-04-12T09:53:53.085Z,13.04
2023-04-12T09:55:25.646Z,13.02
2023-04-12T09:56:57.720Z,13.07
2023-04-12T09:58:31.619Z,13.09
2023-04-12T10:00:03.927Z,13.15
2023-04-12T10:01:37.090Z,13.22
2023-04-12T10:03:10.002Z,13.28
2023-04-12T10:04:42.325Z,13.37
2023-04-12T10:06:14.669Z,13.46
2023-04-12T10:07:46.801Z,13.53
2023-04-12T10:09:18.586Z,13.57
2023-04-12T10:10:50.279Z,13.56
2023-04-12T10:12:22.152Z,13.68
2023-04-12T10:13:53.982Z,13.88
2023-04-12T10:15:26.065Z,14.08
2023-04-12T10:16:58.848Z,14.21
2023-04-12T10:18:30.589Z,14.26
2023-04-12T10:20:03.438Z,14.29
2023-04-12T10:21:35.231Z,14.41
2023-04-12T10:23:07.231Z,14.45
2023-04-12T10:24:39.293Z,14.43
2023-04-12T10:26:11.068Z,14.40
2023-04-12T10:27:45.811Z,14.46
2023-04-12T10:29:25.444Z,14.53
2023-04-12T10:30:58.088Z,14.61
2023-04-12T10:32:30.165Z,14.77
2023-04-12T10:34:02.682Z,14.87
2023-04-12T10:35:49.600Z,15.06
2023-04-12T10:37:21.643Z,15.28
2023-04-12T10:39:08.064Z,15.29
2023-04-12T10:40:42.000Z,15.44
2023-04-12T10:42:29.667Z,15.68
2023-04-12T10:44:25.494Z,16.01
2023-04-12T10:45:59.244Z,16.21
2023-04-12T10:47:49.348Z,16.25
2023-04-12T10:49:21.218Z,16.26
2023-04-12T10:51:12.503Z,16.28
2023-04-12T10:52:44.182Z,16.34
2023-04-12T10:54:18.986Z,16.43
2023-04-12T10:55:51.326Z,16.50
2023-04-12T10:57:42.820Z,16.55
2023-04-12T10:59:14.752Z,16.68
2023-04-12T11:00:59.962Z,16.87
2023-04-12T11:02:34.610Z,16.98
2023-04-12T11:04:07.695Z,17.03
2023-04-12T11:06:06.384Z,16.98
2023-04-12T11:07:44.870Z,16.91
2023-04-12T11:09:35.293Z,17.03
2023-04-12T11:11:21.002Z,17.09
2023-04-12T11:12:55.181Z,17.29
2023-04-12T11:14:31.368Z,17.53
2023-04-12T11:16:06.469Z,17.72
2023-04-12T11:17:38.310Z,17.86
2023-04-12T11:19:10.029Z,17.99
2023-04-12T11:20:41.939Z,18.07
2023-04-12T11:22:14.368Z,18.03
2023-04-12T11:23:46.675Z,17.92
2023-04-12T11:25:18.765Z,17.90
2023-04-12T11:26:51.133Z,17.98
2023-04-12T11:28:29.795Z,17.94
2023-04-12T11:30:03.598Z,17.91
2023-04-12T11:31:40.331Z,17.88
2023-04-12T11:33:12.109Z,17.95
2023-04-12T11:34:44.566Z,17.97
2023-04-12T11:36:16.585Z,18.00
2023-04-12T11:37:48.366Z,17.94
2023-04-12T11:39:20.241Z,17.98
2023-04-12T11:40:51.888Z,17.97
2023-04-12T11:42:24.120Z,17.97
2023-04-12T11:43:58.434Z,18.05
2023-04-12T11:45:32.730Z,18.12
2023-04-12T11:47:04.882Z,18.11
2023-04-12T11:48:39.158Z,18.05
2023-04-12T11:50:11.250Z,18.05
2023-04-12T11:51:43.061Z,18.08
2023-04-12T11:53:19.880Z,18.01
2023-04-12T11:54:53.826Z,17.94
2023-04-12T11:56:26.280Z,17.80
2023-04-12T11:58:00.174Z,17.67
2023-04-12T11:59:35.496Z,17.51
2023-04-12T12:01:07.937Z,17.47
2023-04-12T12:02:46.670Z,17.55
2023-04-12T12:04:21.326Z,17.62
2023-04-12T12:05:53.666Z,17.48
2023-04-12T12:07:25.918Z,17.34
2023-04-12T12:09:06.856Z,17.27
2023-04-12T12:10:55.471Z,17.35
2023-04-12T12:12:30.973Z,17.42
2023-04-12T12:14:05.731Z,17.41
2023-04-12T12:15:37.873Z,17.44
2023-04-12T12:17:27.733Z,17.43
2023-04-12T12:19:08.426Z,17.26
2023-04-12T12:20:46.277Z,17.18
2023-04-12T12:22:18.852Z,17.29
2023-04-12T12:23:53.222Z,17.47
2023-04-12T12:25:25.185Z,17.51
2023-04-12T12:26:58.602Z,17.45
2023-04-12T12:28:30.428Z,17.50
2023-04-12T12:30:02.769Z,17.60
2023-04-12T12:31:34.872Z,17.70
2023-04-12T12:33:06.994Z,17.74
2023-04-12T12:34:38.932Z,17.84
2023-04-12T12:36:13.848Z,17.84
2023-04-12T12:37:49.988Z,17.78
2023-04-12T12:39:30.880Z,17.81
2023-04-12T12:41:25.563Z,17.87
2023-04-12T12:43:10.056Z,17.88
2023-04-12T12:44:45.077Z,17.99
2023-04-12T12:46:19.053Z,18.09
2023-04-12T12:48:09.504Z,18.13
2023-04-12T12:49:41.918Z,18.13
2023-04-12T12:51:14.723Z,18.26
2023-04-12T12:52:51.966Z,18.34
2023-04-12T12:54:39.332Z,18.39
2023-04-12T12:56:15.977Z,18.47
2023-04-12T12:58:01.810Z,18.50
2023-04-12T12:59:38.137Z,18.58
2023-04-12T13:01:10.162Z,18.71
2023-04-12T13:02:46.035Z,18.78
2023-04-12T13:04:17.828Z,18.76
2023-04-12T13:05:51.213Z,18.80
2023-04-12T13:07:25.892Z,18.84
2023-04-12T13:09:03.354Z,18.98
2023-04-12T13:10:38.108Z,19.16
2023-04-12T13:12:10.986Z,19.18
2023-04-12T13:13:54.991Z,19.14
2023-04-12T13:15:32.495Z,19.00
2023-04-12T13:17:06.658Z,18.83
2023-04-12T13:18:38.348Z,18.66
2023-04-12T13:20:16.599Z,18.57
2023-04-12T13:21:53.192Z,18.50
2023-04-12T13:23:28.410Z,18.34
2023-04-12T13:25:03.230Z,18.14
2023-04-12T13:26:35.450Z,18.08
2023-04-12T13:28:07.546Z,18.09
2023-04-12T13:29:39.278Z,18.09
2023-04-12T13:31:11.375Z,18.18
2023-04-12T13:32:46.977Z,18.38
2023-04-12T13:34:19.549Z,18.44
2023-04-12T13:35:51.299Z,18.47
2023-04-12T13:37:23.013Z,18.47
2023-04-12T13:39:03.446Z,18.39
2023-04-12T13:40:35.610Z,18.32
2023-04-12T13:42:12.966Z,18.31
2023-04-12T13:43:45.421Z,18.33
2023-04-12T13:45:17.301Z,18.41
2023-04-12T13:46:49.862Z,18.49
2023-04-12T13:48:21.904Z,18.43
2023-04-12T13:49:54.634Z,18.48
2023-04-12T13:51:26.992Z,18.47
2023-04-12T13:52:58.648Z,18.48
2023-04-12T13:54:30.935Z,18.44
2023-04-12T13:56:02.841Z,18.29
2023-04-12T13:57:35.667Z,18.21
2023-04-12T13:59:07.495Z,18.22
2023-04-12T14:00:39.409Z,18.19
2023-04-12T14:02:11.461Z,18.17
2023-04-12T14:03:43.426Z,18.16
2023-04-12T14:05:15.604Z,18.16
2023-04-12T14:06:47.960Z,18.12
2023-04-12T14:08:19.953Z,18.11
2023-04-12T14:09:51.718Z,18.08
2023-04-12T14:11:23.856Z,18.07
2023-04-12T14:12:55.824Z,18.03
2023-04-12T14:14:28.449Z,17.97
2023-04-12T14:16:00.154Z,17.95
2023-04-12T14:17:32.777Z,17.92
2023-04-12T14:19:05.552Z,17.92
2023-04-12T14:20:37.211Z,17.88
2023-04-12T14:22:09.016Z,17.87
2023-04-12T14:23:41.956Z,17.83
2023-04-12T14:25:14.242Z,17.80
2023-04-12T14:26:46.131Z,17.86
2023-04-12T14:28:18.124Z,17.94
2023-04-12T14:29:49.901Z,18.11
2023-04-12T14:31:22.292Z,18.26
2023-04-12T14:32:54.302Z,18.41
2023-04-12T14:34:26.172Z,18.46
2023-04-12T14:35:58.845Z,18.52
2023-04-12T14:37:31.345Z,18.57
2023-04-12T14:39:06.979Z,18.61
2023-04-12T14:40:41.218Z,18.58
2023-04-12T14:42:16.418Z,18.60
2023-04-12T14:43:48.624Z,18.62
2023-04-12T14:45:21.913Z,18.65
2023-04-12T14:46:54.036Z,18.70
2023-04-12T14:48:26.412Z,18.73
2023-04-12T14:49:58.168Z,18.78
2023-04-12T14:51:30.247Z,18.81
2023-04-12T14:53:02.053Z,18.70
2023-04-12T14:54:33.994Z,18.62
2023-04-12T14:56:06.340Z,18.61
2023-04-12T14:57:38.833Z,18.63
2023-04-12T14:59:11.030Z,18.51
2023-04-12T15:00:43.022Z,18.39
2023-04-12T15:02:14.824Z,18.30
2023-04-12T15:03:47.888Z,18.17
2023-04-12T15:05:20.138Z,18.06
2023-04-12T15:06:52.471Z,17.98
2023-04-12T15:08:24.846Z,17.89
2023-04-12T15:09:58.748Z,17.76
2023-04-12T15:11:30.516Z,17.60
2023-04-12T15:13:02.165Z,17.42
2023-04-12T15:14:34.073Z,17.30
2023-04-12T15:16:09.254Z,17.26
2023-04-12T15:17:41.037Z,17.12
2023-04-12T15:19:18.131Z,16.97
2023-04-12T15:20:52.887Z,16.85
2023-04-12T15:22:26.643Z,16.76
2023-04-12T15:23:58.718Z,16.71
2023-04-12T15:25:31.135Z,16.66
2023-04-12T15:27:05.841Z,16.69
2023-04-12T15:28:38.706Z,16.77
2023-04-12T15:30:13.019Z,16.83
2023-04-12T15:31:45.366Z,16.89
2023-04-12T15:33:17.311Z,16.97
2023-04-12T15:34:49.475Z,16.93
2023-04-12T15:36:23.382Z,16.89
2023-04-12T15:37:55.729Z,16.91
2023-04-12T15:39:27.531Z,16.92
2023-04-12T15:40:59.762Z,16.87
2023-04-12T15:42:31.508Z,16.85
2023-04-12T15:44:03.898Z,16.81
2023-04-12T15:45:35.675Z,16.76
2023-04-12T15:47:11.509Z,16.77
2023-04-12T15:48:43.942Z,16.73
2023-04-12T15:50:16.213Z,16.64
2023-04-12T15:51:50.383Z,16.51
2023-04-12T15:55:12.156Z,16.13
2023-04-12T15:56:45.375Z,15.96
2023-04-12T15:58:17.992Z,15.82
2023-04-12T15:59:52.910Z,15.63
2023-04-12T16:01:26.741Z,15.54
2023-04-12T16:02:58.698Z,15.51
2023-04-12T16:04:32.113Z,15.48
2023-04-12T16:06:04.169Z,15.46
2023-04-12T16:07:36.234Z,15.44
2023-04-12T16:09:09.034Z,15.43
2023-04-12T16:10:41.716Z,15.38
2023-04-12T16:12:13.527Z,15.37
2023-04-12T16:13:49.270Z,15.38
2023-04-12T16:15:21.828Z,15.40
2023-04-12T16:16:53.780Z,15.44
2023-04-12T16:18:25.525Z,15.45
2023-04-12T16:19:57.211Z,15.43
2023-04-12T16:21:30.475Z,15.39
2023-04-12T16:23:04.198Z,15.37
2023-04-12T16:24:36.568Z,15.42
2023-04-12T16:26:09.658Z,15.42
2023-04-12T16:27:41.498Z,15.33
2023-04-12T16:29:13.826Z,15.25
2023-04-12T16:30:45.995Z,15.20
2023-04-12T16:32:18.138Z,15.18
2023-04-12T16:33:49.916Z,15.09
2023-04-12T16:35:21.830Z,15.02
2023-04-12T16:36:53.603Z,14.94
2023-04-12T16:38:25.342Z,14.88
2023-04-12T16:39:57.262Z,14.80
2023-04-12T16:41:29.065Z,14.69
2023-04-12T16:43:00.938Z,14.58
2023-04-12T16:44:32.756Z,14.55
2023-04-12T16:46:05.237Z,14.51
2023-04-12T16:47:37.504Z,14.49
2023-04-12T16:49:09.326Z,14.42
2023-04-12T16:50:45.024Z,14.34
2023-04-12T16:52:16.895Z,14.27
2023-04-12T16:53:48.665Z,14.21
2023-04-12T16:55:21.102Z,14.15
2023-04-12T16:56:53.398Z,14.09
2023-04-12T16:58:25.229Z,14.00
2023-04-12T16:59:57.771Z,13.95
2023-04-12T17:01:30.334Z,13.90
2023-04-12T17:03:02.262Z,13.84
2023-04-12T17:04:34.607Z,13.81
2023-04-12T17:06:06.570Z,13.71
2023-04-12T17:07:38.879Z,13.65
2023-04-12T17:09:10.711Z,13.60
2023-04-12T17:10:43.371Z,13.53
2023-04-12T17:12:14.950Z,13.48
2023-04-12T17:13:47.022Z,13.44
2023-04-12T17:15:19.194Z,13.41
2023-04-12T17:16:51.285Z,13.39
2023-04-12T17:18:23.267Z,13.35
2023-04-12T17:19:56.167Z,13.30
2023-04-12T17:21:28.174Z,13.22
2023-04-12T17:23:00.504Z,13.18
2023-04-12T17:24:33.006Z,13.15
2023-04-12T17:26:08.941Z,13.10
2023-04-12T17:27:41.364Z,13.04
2023-04-12T17:29:13.925Z,12.99
2023-04-12T17:30:46.222Z,12.91
2023-04-12T17:32:18.470Z,12.84
2023-04-12T17:33:50.197Z,12.80
2023-04-12T17:35:21.851Z,12.77
2023-04-12T17:36:55.401Z,12.70
2023-04-12T17:38:27.139Z,12.62
2023-04-12T17:39:59.028Z,12.59
2023-04-12T17:41:31.288Z,12.54
2023-04-12T17:43:04.006Z,12.48
2023-04-12T17:44:36.102Z,12.41
2023-04-12T17:46:08.305Z,12.37
2023-04-12T17:47:42.928Z,12.35
2023-04-12T17:49:14.986Z,12.32
2023-04-12T17:50:47.293Z,12.28
2023-04-12T17:52:19.370Z,12.27
2023-04-12T17:53:51.479Z,12.23
2023-04-12T17:55:26.844Z,12.24
2023-04-12T17:56:58.729Z,12.23
2023-04-12T17:58:31.448Z,12.17
2023-04-12T18:00:05.977Z,12.14
2023-04-12T18:01:38.151Z,12.13
2023-04-12T18:03:12.617Z,12.10
2023-04-12T18:04:44.531Z,12.05
2023-04-12T18:06:18.980Z,12.03
2023-04-12T18:07:51.454Z,11.99
2023-04-12T18:09:23.927Z,11.98
2023-04-12T18:10:56.268Z,11.98
2023-04-12T18:12:29.175Z,11.94
2023-04-12T18:14:01.405Z,11.88
2023-04-12T18:15:33.107Z,11.88
2023-04-12T18:17:04.841Z,11.84
2023-04-12T18:18:37.208Z,11.82
2023-04-12T18:20:12.163Z,11.79
2023-04-12T18:21:47.865Z,11.76
2023-04-12T18:23:19.620Z,11.74
2023-04-12T18:24:51.344Z,11.70
2023-04-12T18:26:23.525Z,11.66
2023-04-12T18:27:55.816Z,11.67
2023-04-12T18:29:28.909Z,11.63
2023-04-12T18:31:02.631Z,11.62
2023-04-12T18:32:35.201Z,11.63
2023-04-12T18:34:07.335Z,11.62
2023-04-12T18:35:40.107Z,11.52
2023-04-12T18:37:12.257Z,11.49
2023-04-12T18:38:44.367Z,11.47
2023-04-12T18:40:16.488Z,11.45
2023-04-12T18:41:48.141Z,11.42
2023-04-12T18:43:19.815Z,11.37
2023-04-12T18:44:52.243Z,11.34
2023-04-12T18:46:27.142Z,11.31
2023-04-12T18:48:00.580Z,11.28
2023-04-12T18:49:32.614Z,11.23
2023-04-12T18:51:04.561Z,11.18
2023-04-12T18:52:37.873Z,11.11
2023-04-12T18:54:13.295Z,11.05
2023-04-12T18:55:48.417Z,10.95
2023-04-12T18:57:20.023Z,10.84
2023-04-12T18:58:55.652Z,10.77
2023-04-12T19:00:30.117Z,10.70
2023-04-12T19:02:01.914Z,10.63
2023-04-12T19:03:34.190Z,10.59
2023-04-12T19:05:05.877Z,10.55
2023-04-12T19:06:38.092Z,10.49
2023-04-12T19:08:10.485Z,10.46
2023-04-12T19:09:42.405Z,10.43
2023-04-12T19:11:14.513Z,10.40
2023-04-12T19:12:46.304Z,10.36
2023-04-12T19:14:19.367Z,10.32
2023-04-12T19:15:52.605Z,10.29
2023-04-12T19:17:27.866Z,10.27
2023-04-12T19:19:00.544Z,10.25
2023-04-12T19:20:32.729Z,10.23
2023-04-12T19:22:04.358Z,10.21
2023-04-12T19:23:38.312Z,10.13
2023-04-12T19:25:10.298Z,10.01
2023-04-12T19:26:47.248Z,9.89
2023-04-12T19:28:19.224Z,9.80
2023-04-12T19:29:51.830Z,9.68
2023-04-12T19:31:23.976Z,9.62
2023-04-12T19:32:55.796Z,9.56
2023-04-12T19:34:27.771Z,9.51
2023-04-12T19:36:02.575Z,9.49
2023-04-12T19:37:35.018Z,9.44
2023-04-12T19:39:07.093Z,9.46
2023-04-12T19:40:38.708Z,9.48
2023-04-12T19:42:11.059Z,9.50
2023-04-12T19:43:43.219Z,9.50
2023-04-12T19:45:15.238Z,9.50
2023-04-12T19:46:47.884Z,9.51
2023-04-12T19:48:20.776Z,9.51
2023-04-12T19:49:52.690Z,9.48
2023-04-12T19:51:24.706Z,9.43
2023-04-12T19:52:56.654Z,9.34
2023-04-12T19:54:28.725Z,9.26
2023-04-12T19:56:00.974Z,9.18
2023-04-12T19:57:33.453Z,9.10
2023-04-12T19:59:07.016Z,9.02
2023-04-12T20:00:40.097Z,8.92
2023-04-12T20:02:12.621Z,8.88
2023-04-12T20:03:44.430Z,8.85
2023-04-12T20:05:16.822Z,8.84
2023-04-12T20:06:49.158Z,8.82
2023-04-12T20:08:20.782Z,8.80
2023-04-12T20:09:52.471Z,8.80
2023-04-12T20:11:24.538Z,8.76
2023-04-12T20:12:56.407Z,8.76
2023-04-12T20:14:28.031Z,8.76
2023-04-12T20:16:02.880Z,8.76
2023-04-12T20:17:35.252Z,8.75
2023-04-12T20:19:07.760Z,8.76
2023-04-12T20:20:39.571Z,8.76